createdAt,value
2023-04-27T00:00:50.281Z,4.40
2023-04-27T00:03:20.374Z,5.10
2023-04-27T00:05:49.053Z,4.22
2023-04-27T00:08:17.538Z,4.60
2023-04-27T00:10:45.909Z,4.22
2023-04-27T00:13:14.250Z,3.78
2023-04-27T00:15:42.804Z,4.30
2023-04-27T00:18:11.187Z,3.83
2023-04-27T00:20:41.125Z,4.32
2023-04-27T00:23:09.561Z,4.50
2023-04-27T00:25:38.025Z,4.28
2023-04-27T00:28:06.645Z,4.45
2023-04-27T00:30:35.844Z,3.60
2023-04-27T00:33:04.548Z,3.63
2023-04-27T00:35:33.707Z,3.80
2023-04-27T00:38:03.697Z,4.70
2023-04-27T00:40:32.280Z,4.35
2023-04-27T00:43:00.977Z,4.40
2023-04-27T00:45:29.508Z,4.88
2023-04-27T00:47:58.169Z,3.92
2023-04-27T00:50:29.561Z,3.95
2023-04-27T00:52:58.422Z,3.67
2023-04-27T00:55:28.242Z,4.22
2023-04-27T00:57:57.063Z,3.90
2023-04-27T01:00:26.130Z,4.30
2023-04-27T01:02:56.524Z,4.10
2023-04-27T01:05:26.122Z,4.45
2023-04-27T01:07:54.734Z,4.30
2023-04-27T01:10:23.361Z,4.35
2023-04-27T01:12:53.503Z,4.85
2023-04-27T01:15:21.920Z,4.40
2023-04-27T01:17:50.802Z,4.55
2023-04-27T01:20:20.255Z,5.18
2023-04-27T01:22:48.928Z,4.65
2023-04-27T01:25:20.038Z,5.25
2023-04-27T01:27:48.504Z,5.07
2023-04-27T01:30:17.086Z,4.57
2023-04-27T01:32:45.542Z,5.07
2023-04-27T01:35:14.139Z,5.30
2023-04-27T01:37:42.586Z,4.80
2023-04-27T01:40:13.004Z,4.40
2023-04-27T01:42:42.760Z,4.75
2023-04-27T01:45:12.592Z,5.03
2023-04-27T01:47:41.125Z,5.35
2023-04-27T01:50:10.365Z,4.95
2023-04-27T01:52:40.946Z,5.43
2023-04-27T01:55:09.827Z,5.13
2023-04-27T01:57:39.094Z,4.90
2023-04-27T02:00:10.385Z,5.32
2023-04-27T02:02:53.482Z,5.32
2023-04-27T02:05:22.585Z,4.90
2023-04-27T02:07:51.199Z,5.10
2023-04-27T02:10:21.168Z,5.00
2023-04-27T02:12:50.194Z,5.03
2023-04-27T02:15:19.994Z,5.38
2023-04-27T02:17:48.542Z,5.35
2023-04-27T02:20:17.000Z,5.25
2023-04-27T02:22:48.342Z,5.30
2023-04-27T02:25:16.769Z,5.03
2023-04-27T02:27:45.068Z,5.30
2023-04-27T02:30:15.804Z,4.95
2023-04-27T02:32:46.259Z,5.35
2023-04-27T02:35:14.776Z,4.72
2023-04-27T02:37:43.350Z,4.90
2023-04-27T02:40:12.563Z,5.32
2023-04-27T02:42:40.922Z,5.25
2023-04-27T02:45:09.892Z,5.13
2023-04-27T02:47:38.304Z,5.60
2023-04-27T02:50:10.498Z,5.45
2023-04-27T02:52:38.848Z,5.50
2023-04-27T02:55:08.028Z,5.45
2023-04-27T02:57:36.552Z,5.55
2023-04-27T03:00:07.493Z,5.70
2023-04-27T03:02:36.117Z,5.95
2023-04-27T03:05:05.318Z,5.55
2023-04-27T03:07:35.412Z,5.07
2023-04-27T03:10:06.000Z,5.78
2023-04-27T03:12:34.543Z,5.80
2023-04-27T03:15:02.982Z,5.70
2023-04-27T03:17:32.057Z,5.50
2023-04-27T03:20:00.624Z,5.30
2023-04-27T03:22:29.244Z,6.05
2023-04-27T03:24:59.247Z,6.03
2023-04-27T03:27:27.630Z,5.57
2023-04-27T03:29:56.011Z,5.75
2023-04-27T03:32:24.337Z,5.93
2023-04-27T03:34:53.274Z,6.20
2023-04-27T03:37:21.723Z,6.30
2023-04-27T03:39:50.039Z,6.30
2023-04-27T03:42:20.135Z,6.55
2023-04-27T03:44:48.534Z,5.95
2023-04-27T03:47:16.954Z,6.32
2023-04-27T03:49:46.172Z,6.32
2023-04-27T03:52:14.617Z,6.70
2023-04-27T03:54:43.395Z,6.65
2023-04-27T03:57:13.306Z,6.78
2023-04-27T03:59:43.105Z,6.30
2023-04-27T04:02:11.755Z,6.50
2023-04-27T04:04:40.354Z,6.55
2023-04-27T04:07:08.895Z,6.15
2023-04-27T04:09:37.422Z,6.50
2023-04-27T04:12:06.651Z,6.85
2023-04-27T04:14:35.054Z,6.57
2023-04-27T04:17:04.857Z,7.38
2023-04-27T04:19:34.974Z,7.60
2023-04-27T04:22:03.587Z,6.45
2023-04-27T04:24:32.069Z,7.18
2023-04-27T04:27:01.170Z,7.22
2023-04-27T04:29:29.592Z,6.80
2023-04-27T04:31:57.966Z,7.43
2023-04-27T04:34:29.132Z,7.28
2023-04-27T04:36:58.173Z,7.22
2023-04-27T04:39:27.091Z,8.05
2023-04-27T04:41:55.492Z,8.13
2023-04-27T04:44:25.341Z,7.32
2023-04-27T04:46:55.320Z,6.65
2023-04-27T04:49:28.859Z,7.40
2023-04-27T04:51:57.424Z,7.78
2023-04-27T04:54:26.099Z,7.72
2023-04-27T04:56:56.459Z,8.85
2023-04-27T04:59:27.306Z,7.97
2023-04-27T05:01:56.051Z,7.75
2023-04-27T05:04:24.732Z,7.40
2023-04-27T05:06:54.645Z,7.88
2023-04-27T05:09:23.553Z,8.43
2023-04-27T05:11:51.914Z,8.07
2023-04-27T05:14:20.360Z,8.48
2023-04-27T05:16:49.312Z,7.25
2023-04-27T05:19:18.456Z,7.68
2023-04-27T05:21:46.896Z,8.52
2023-04-27T05:24:16.589Z,7.85
2023-04-27T05:26:44.956Z,7.90
2023-04-27T05:29:13.429Z,8.40
2023-04-27T05:31:41.920Z,8.68
2023-04-27T05:34:10.405Z,8.35
2023-04-27T05:36:38.870Z,7.97
2023-04-27T05:39:07.846Z,8.23
2023-04-27T05:41:37.622Z,7.88
2023-04-27T05:44:06.461Z,8.18
2023-04-27T05:46:37.925Z,7.80
2023-04-27T05:49:07.059Z,6.90
2023-04-27T05:51:38.162Z,8.57
2023-04-27T05:54:06.827Z,7.60
2023-04-27T05:56:35.401Z,8.40
2023-04-27T05:59:05.155Z,8.48
2023-04-27T06:01:33.527Z,7.70
2023-04-27T06:04:02.789Z,7.03
2023-04-27T06:06:33.367Z,6.60
2023-04-27T06:09:01.807Z,6.47
2023-04-27T06:11:30.256Z,6.00
2023-04-27T06:13:58.665Z,6.38
2023-04-27T06:16:28.564Z,6.10
2023-04-27T06:18:56.969Z,5.93
2023-04-27T06:21:25.314Z,6.07
2023-04-27T06:23:53.644Z,5.60
2023-04-27T06:26:21.970Z,5.65
2023-04-27T06:28:50.437Z,5.63
2023-04-27T06:31:18.932Z,5.78
2023-04-27T06:33:48.759Z,5.15
2023-04-27T06:36:17.196Z,5.57
2023-04-27T06:38:45.642Z,5.43
2023-04-27T06:41:14.327Z,5.75
2023-04-27T06:43:42.710Z,5.20
2023-04-27T06:46:11.126Z,6.22
2023-04-27T06:48:39.541Z,5.55
2023-04-27T06:51:09.334Z,5.57
2023-04-27T06:53:37.750Z,6.20
2023-04-27T06:56:07.083Z,6.13
2023-04-27T06:58:35.504Z,6.05
2023-04-27T07:01:04.016Z,5.97
2023-04-27T07:03:36.374Z,5.63
2023-04-27T07:06:05.747Z,6.32
2023-04-27T07:13:27.670Z,5.70
2023-04-27T07:15:57.867Z,5.75
2023-04-27T07:18:28.037Z,6.65
2023-04-27T07:20:57.839Z,5.95
2023-04-27T07:23:26.675Z,7.40
2023-04-27T07:25:55.050Z,6.78
2023-04-27T07:28:23.420Z,9.20
2023-04-27T07:30:53.109Z,6.38
2023-04-27T07:33:22.198Z,6.30
2023-04-27T07:35:51.350Z,6.50
2023-04-27T07:38:19.906Z,6.47
2023-04-27T07:40:48.302Z,5.70
2023-04-27T07:43:17.805Z,6.00
2023-04-27T07:45:46.180Z,11.43
2023-04-27T07:48:16.404Z,6.57
2023-04-27T07:50:44.768Z,6.70
2023-04-27T07:53:13.129Z,6.47
2023-04-27T07:55:43.699Z,6.53
2023-04-27T07:58:12.143Z,7.47
2023-04-27T08:00:40.569Z,6.82
2023-04-27T08:03:09.390Z,7.03
2023-04-27T08:05:39.577Z,6.85
2023-04-27T08:08:08.208Z,7.55
2023-04-27T08:10:38.086Z,7.05
2023-04-27T08:13:09.708Z,6.70
2023-04-27T08:15:38.275Z,7.60
2023-04-27T08:18:06.880Z,7.07
2023-04-27T08:20:35.917Z,7.22
2023-04-27T08:23:05.652Z,7.43
2023-04-27T08:25:33.977Z,7.47
2023-04-27T08:28:02.290Z,7.30
2023-04-27T08:30:30.723Z,7.18
2023-04-27T08:32:59.235Z,7.20
2023-04-27T08:35:27.599Z,7.15
2023-04-27T08:37:56.372Z,7.35
2023-04-27T08:40:26.172Z,7.38
2023-04-27T08:42:56.652Z,7.68
2023-04-27T08:45:26.307Z,7.20
2023-04-27T08:47:54.850Z,7.18
2023-04-27T08:50:25.485Z,6.70
2023-04-27T08:52:54.045Z,7.55
2023-04-27T08:55:23.561Z,8.43
2023-04-27T08:57:57.563Z,7.10
2023-04-27T09:00:27.161Z,13.13
2023-04-27T09:02:55.699Z,7.47
2023-04-27T09:05:24.439Z,7.45
2023-04-27T09:08:00.708Z,7.32
2023-04-27T09:10:29.933Z,8.05
2023-04-27T09:13:01.361Z,8.15
2023-04-27T09:15:29.857Z,10.30
2023-04-27T09:17:59.178Z,8.60
2023-04-27T09:20:28.527Z,11.45
2023-04-27T09:22:58.221Z,7.30
2023-04-27T09:25:28.951Z,6.88
2023-04-27T09:27:58.523Z,6.90
2023-04-27T09:30:29.632Z,6.82
2023-04-27T09:32:59.619Z,7.10
2023-04-27T09:35:30.561Z,7.57
2023-04-27T09:37:59.635Z,7.03
2023-04-27T09:40:30.629Z,7.53
2023-04-27T09:43:01.520Z,7.70
2023-04-27T09:45:31.593Z,7.18
2023-04-27T09:48:01.776Z,7.90
2023-04-27T09:50:30.273Z,7.07
2023-04-27T09:52:58.940Z,12.27
2023-04-27T09:55:32.818Z,9.93
2023-04-27T09:58:18.892Z,11.02
2023-04-27T10:01:01.229Z,7.95
2023-04-27T10:03:34.232Z,7.63
2023-04-27T10:06:38.348Z,7.95
2023-04-27T10:09:06.990Z,7.40
2023-04-27T10:11:40.514Z,7.88
2023-04-27T10:14:11.012Z,8.45
2023-04-27T10:16:47.465Z,7.10
2023-04-27T10:19:16.546Z,8.18
2023-04-27T10:21:56.946Z,8.00
2023-04-27T10:24:38.162Z,8.05
2023-04-27T10:27:08.706Z,7.25
2023-04-27T10:29:39.085Z,7.68
2023-04-27T10:32:10.417Z,7.28
2023-04-27T10:34:39.442Z,7.68
2023-04-27T10:37:10.173Z,7.85
2023-04-27T10:39:48.731Z,7.55
2023-04-27T10:42:28.147Z,8.60
2023-04-27T10:44:58.526Z,7.82
2023-04-27T10:47:38.901Z,8.13
2023-04-27T10:50:11.419Z,8.77
2023-04-27T10:52:42.337Z,8.88
2023-04-27T10:55:21.463Z,8.43
2023-04-27T10:57:51.588Z,8.68
2023-04-27T11:00:25.202Z,7.70
2023-04-27T11:03:12.143Z,8.40
2023-04-27T11:05:41.221Z,8.45
2023-04-27T11:08:11.308Z,8.43
2023-04-27T11:10:41.568Z,8.70
2023-04-27T11:13:21.729Z,7.60
2023-04-27T11:15:51.529Z,8.75
2023-04-27T11:18:23.171Z,8.60
2023-04-27T11:20:55.803Z,9.00
2023-04-27T11:23:30.143Z,8.75
2023-04-27T11:25:59.414Z,8.77
2023-04-27T11:28:27.826Z,8.00
2023-04-27T11:31:00.031Z,8.70
2023-04-27T11:33:43.052Z,7.95
2023-04-27T11:36:18.700Z,7.60
2023-04-27T11:38:47.238Z,7.93
2023-04-27T11:41:17.822Z,7.95
2023-04-27T11:43:49.048Z,8.35
2023-04-27T11:46:21.498Z,8.85
2023-04-27T11:48:51.300Z,9.05
2023-04-27T11:51:26.542Z,8.82
2023-04-27T11:53:54.959Z,8.73
2023-04-27T11:56:23.608Z,9.02
2023-04-27T11:58:51.926Z,9.43
2023-04-27T12:01:27.659Z,9.05
2023-04-27T12:04:12.662Z,8.93
2023-04-27T12:06:41.313Z,9.27
2023-04-27T12:09:10.016Z,8.82
2023-04-27T12:11:43.721Z,9.27
2023-04-27T12:14:19.315Z,8.75
2023-04-27T12:16:47.712Z,9.68
2023-04-27T12:19:17.546Z,8.68
2023-04-27T12:22:04.546Z,9.05
2023-04-27T12:24:33.190Z,9.65
2023-04-27T12:27:03.143Z,9.32
2023-04-27T12:29:32.608Z,9.23
2023-04-27T12:34:44.909Z,8.77
2023-04-27T12:37:13.320Z,9.07
2023-04-27T12:39:41.881Z,8.93
2023-04-27T12:42:18.693Z,8.77
2023-04-27T12:44:47.448Z,9.75
2023-04-27T12:47:27.846Z,8.93
2023-04-27T12:50:13.720Z,9.60
2023-04-27T12:52:42.153Z,9.68
2023-04-27T12:55:24.840Z,10.30
2023-04-27T12:58:24.233Z,9.65
2023-04-27T13:00:52.750Z,9.70
2023-04-27T13:03:21.348Z,9.88
2023-04-27T13:06:06.543Z,9.25
2023-04-27T13:08:34.916Z,8.90
2023-04-27T13:11:03.322Z,9.73
2023-04-27T13:13:31.818Z,9.75
2023-04-27T13:16:26.428Z,10.10
2023-04-27T13:18:55.696Z,9.65
2023-04-27T13:21:31.782Z,9.63
2023-04-27T13:24:00.803Z,9.82
2023-04-27T13:26:29.253Z,9.15
2023-04-27T13:28:57.978Z,9.57
2023-04-27T13:31:27.109Z,9.10
2023-04-27T13:33:55.930Z,9.52
2023-04-27T13:36:25.643Z,9.35
2023-04-27T13:38:54.058Z,9.80
2023-04-27T13:41:22.454Z,9.52
2023-04-27T13:43:51.018Z,9.85
2023-04-27T13:46:20.044Z,9.43
2023-04-27T13:48:48.676Z,9.25
2023-04-27T13:51:17.158Z,9.52
2023-04-27T13:53:46.937Z,9.38
2023-04-27T13:56:15.301Z,9.50
2023-04-27T13:58:43.746Z,9.98
2023-04-27T14:01:13.117Z,10.20
2023-04-27T14:03:43.334Z,10.05
2023-04-27T14:06:12.142Z,9.15
2023-04-27T14:08:40.952Z,8.73
2023-04-27T14:11:18.611Z,9.00
2023-04-27T14:13:48.052Z,9.15
2023-04-27T14:16:16.462Z,9.20
2023-04-27T14:18:45.148Z,9.35
2023-04-27T14:21:17.134Z,9.23
2023-04-27T14:23:46.480Z,9.60
2023-04-27T14:26:16.164Z,9.63
2023-04-27T14:28:44.757Z,8.85
2023-04-27T14:31:13.094Z,9.48
2023-04-27T14:33:44.939Z,9.48
2023-04-27T14:36:13.462Z,9.90
2023-04-27T14:38:41.821Z,9.82
2023-04-27T14:41:10.194Z,9.18
2023-04-27T14:43:44.689Z,9.35
2023-04-27T14:46:20.765Z,8.52
2023-04-27T14:48:50.127Z,9.27
2023-04-27T14:51:18.550Z,8.75
2023-04-27T14:53:46.943Z,8.93
2023-04-27T14:56:23.172Z,9.40
2023-04-27T14:58:52.896Z,9.38
2023-04-27T15:01:21.401Z,9.95
2023-04-27T15:03:50.927Z,9.40
2023-04-27T15:06:19.553Z,9.50
2023-04-27T15:08:48.449Z,8.90
2023-04-27T15:11:17.270Z,9.23
2023-04-27T15:13:45.732Z,9.50
2023-04-27T15:16:15.916Z,9.77
2023-04-27T15:18:54.615Z,8.60
2023-04-27T15:21:23.307Z,9.27
2023-04-27T15:23:51.700Z,8.45
2023-04-27T15:26:20.046Z,8.70
2023-04-27T15:28:49.793Z,10.00
2023-04-27T15:31:19.656Z,8.73
2023-04-27T15:33:48.104Z,8.82
2023-04-27T15:36:17.418Z,9.65
2023-04-27T15:38:45.784Z,9.88
2023-04-27T15:41:14.126Z,9.75
2023-04-27T15:43:42.432Z,9.50
2023-04-27T15:46:11.405Z,9.70
2023-04-27T15:48:41.380Z,8.55
2023-04-27T15:51:10.398Z,9.27
2023-04-27T15:53:39.078Z,9.18
2023-04-27T15:56:32.368Z,8.98
2023-04-27T15:59:00.767Z,8.93
2023-04-27T16:01:29.449Z,9.25
2023-04-27T16:03:59.297Z,9.27
2023-04-27T16:06:33.237Z,9.02
2023-04-27T16:09:03.218Z,9.80
2023-04-27T16:11:36.382Z,9.38
2023-04-27T16:14:05.702Z,9.13
2023-04-27T16:16:34.207Z,9.60
2023-04-27T16:19:04.046Z,9.40
2023-04-27T16:21:32.448Z,9.07
2023-04-27T16:24:01.985Z,8.80
2023-04-27T16:26:30.399Z,8.82
2023-04-27T16:28:58.764Z,9.63
2023-04-27T16:31:27.195Z,9.20
2023-04-27T16:33:56.459Z,8.77
2023-04-27T16:36:35.744Z,8.90
2023-04-27T16:39:05.088Z,8.95
2023-04-27T16:41:33.670Z,8.98
2023-04-27T16:44:02.265Z,8.30
2023-04-27T16:46:33.852Z,9.30
2023-04-27T16:49:03.645Z,9.05
2023-04-27T16:51:33.732Z,8.82
2023-04-27T16:54:02.519Z,8.32
2023-04-27T16:56:32.563Z,8.30
2023-04-27T16:59:12.099Z,9.10
2023-04-27T17:01:40.823Z,8.75
2023-04-27T17:04:09.355Z,8.52
2023-04-27T17:06:40.773Z,8.32
2023-04-27T17:09:18.397Z,8.77
2023-04-27T17:11:46.764Z,9.15
2023-04-27T17:14:15.187Z,8.15
2023-04-27T17:16:43.541Z,8.40
2023-04-27T17:19:13.690Z,8.98
2023-04-27T17:21:43.583Z,8.30
2023-04-27T17:24:11.911Z,8.23
2023-04-27T17:26:40.467Z,8.88
2023-04-27T17:29:08.788Z,9.35
2023-04-27T17:31:37.187Z,9.35
2023-04-27T17:34:06.488Z,9.75
2023-04-27T17:36:35.321Z,9.05
2023-04-27T17:39:05.868Z,9.23
2023-04-27T17:41:36.726Z,9.48
2023-04-27T17:44:10.252Z,9.63
2023-04-27T17:46:38.984Z,9.55
2023-04-27T17:49:07.510Z,8.95
2023-04-27T17:51:35.912Z,9.23
2023-04-27T17:54:23.494Z,9.75
2023-04-27T17:56:51.877Z,8.57
2023-04-27T17:59:20.411Z,8.10
2023-04-27T18:01:48.984Z,8.38
2023-04-27T18:04:17.470Z,8.02
2023-04-27T18:06:45.938Z,8.30
2023-04-27T18:09:14.646Z,8.23
2023-04-27T18:11:44.692Z,8.35
2023-04-27T18:14:13.210Z,8.25
2023-04-27T18:16:51.594Z,8.35
2023-04-27T18:19:20.135Z,8.70
2023-04-27T18:21:48.494Z,8.20
2023-04-27T18:24:16.890Z,7.97
2023-04-27T18:26:54.107Z,8.65
2023-04-27T18:29:29.074Z,8.45
2023-04-27T18:31:58.382Z,7.90
2023-04-27T18:34:26.860Z,7.97
2023-04-27T18:36:57.911Z,8.55
2023-04-27T18:39:26.636Z,8.27
2023-04-27T18:41:57.161Z,8.77
2023-04-27T18:44:25.573Z,8.23
2023-04-27T18:46:53.958Z,7.82
2023-04-27T18:49:32.328Z,8.30
2023-04-27T18:52:00.966Z,8.20
2023-04-27T18:54:29.318Z,7.22
2023-04-27T18:56:59.154Z,7.90
2023-04-27T18:59:27.707Z,8.13
2023-04-27T19:01:56.182Z,8.13
2023-04-27T19:04:25.763Z,7.30
2023-04-27T19:06:54.344Z,8.00
2023-04-27T19:09:22.677Z,7.20
2023-04-27T19:12:01.990Z,7.28
2023-04-27T19:14:33.271Z,7.78
2023-04-27T19:17:01.892Z,6.88
2023-04-27T19:19:30.356Z,7.78
2023-04-27T19:21:59.749Z,7.47
2023-04-27T19:24:28.381Z,7.47
2023-04-27T19:26:56.760Z,7.97
2023-04-27T19:29:26.484Z,7.28
2023-04-27T19:31:56.679Z,7.70
2023-04-27T19:34:25.040Z,7.40
2023-04-27T19:36:53.552Z,7.43
2023-04-27T19:39:21.920Z,7.32
2023-04-27T19:41:50.306Z,7.55
2023-04-27T19:44:18.788Z,7.93
2023-04-27T19:46:47.238Z,7.18
2023-04-27T19:49:17.009Z,7.25
2023-04-27T19:51:46.541Z,8.10
2023-04-27T19:54:15.224Z,8.27
2023-04-27T19:56:43.714Z,7.35
2023-04-27T19:59:12.148Z,7.68
2023-04-27T20:01:40.615Z,8.38
2023-04-27T20:04:09.234Z,7.68
2023-04-27T20:06:40.764Z,7.88
2023-04-27T20:09:09.175Z,7.65
2023-04-27T20:11:37.765Z,7.53
2023-04-27T20:14:06.295Z,7.78
2023-04-27T20:16:34.784Z,7.70
2023-04-27T20:19:05.176Z,7.30
2023-04-27T20:21:33.798Z,7.95
2023-04-27T20:24:03.483Z,8.18
2023-04-27T20:26:31.804Z,8.50
2023-04-27T20:29:00.171Z,8.25
2023-04-27T20:31:28.848Z,7.97
2023-04-27T20:33:57.241Z,8.05
2023-04-27T20:36:26.177Z,6.90
2023-04-27T20:38:54.625Z,7.10
2023-04-27T20:41:25.599Z,7.65
2023-04-27T20:43:54.042Z,7.13
2023-04-27T20:46:22.416Z,7.32
2023-04-27T20:48:50.774Z,7.40
2023-04-27T20:51:19.487Z,7.68
2023-04-27T20:53:48.178Z,7.40
2023-04-27T20:56:16.775Z,7.35
2023-04-27T20:58:46.782Z,7.68
2023-04-27T21:01:15.171Z,6.68
2023-04-27T21:03:43.677Z,7.07
2023-04-27T21:06:12.572Z,6.95
2023-04-27T21:08:41.748Z,7.10
2023-04-27T21:11:10.145Z,6.57
2023-04-27T21:13:39.004Z,6.43
2023-04-27T21:16:08.825Z,7.47
2023-04-27T21:18:37.182Z,6.60
2023-04-27T21:21:05.811Z,6.53
2023-04-27T21:23:35.307Z,6.65
2023-04-27T21:26:03.701Z,7.32
2023-04-27T21:28:32.454Z,6.65
2023-04-27T21:31:01.071Z,6.60
2023-04-27T21:33:31.990Z,6.25
2023-04-27T21:36:00.429Z,6.65
2023-04-27T21:38:28.813Z,6.25
2023-04-27T21:40:57.214Z,6.82
2023-04-27T21:43:26.196Z,6.30
2023-04-27T21:45:55.036Z,6.05
2023-04-27T21:48:23.934Z,7.07
2023-04-27T21:50:53.888Z,6.80
2023-04-27T21:53:23.026Z,6.47
2023-04-27T21:55:51.643Z,6.80
2023-04-27T21:58:20.004Z,7.20
2023-04-27T22:00:48.673Z,6.78
2023-04-27T22:03:17.412Z,6.97
2023-04-27T22:05:48.729Z,7.57
2023-04-27T22:08:18.518Z,7.07
2023-04-27T22:10:47.069Z,7.45
2023-04-27T22:13:18.744Z,7.18
2023-04-27T22:15:48.140Z,7.50
2023-04-27T22:18:16.873Z,7.55
2023-04-27T22:20:45.932Z,7.53
2023-04-27T22:23:14.454Z,7.28
2023-04-27T22:25:44.361Z,7.55
2023-04-27T22:28:13.354Z,7.93
2023-04-27T22:30:42.032Z,8.07
2023-04-27T22:33:11.417Z,8.18
2023-04-27T22:35:39.847Z,7.65
2023-04-27T22:38:08.413Z,7.88
2023-04-27T22:40:37.219Z,8.27
2023-04-27T22:43:06.961Z,7.35
2023-04-27T22:45:36.723Z,6.78
2023-04-27T22:48:07.742Z,8.27
2023-04-27T22:50:36.363Z,8.10
2023-04-27T22:53:04.741Z,7.72
2023-04-27T22:55:33.144Z,8.02
2023-04-27T22:58:01.859Z,8.52
2023-04-27T23:00:31.615Z,8.82
2023-04-27T23:03:00.127Z,8.95
2023-04-27T23:05:29.202Z,8.32
2023-04-27T23:07:57.569Z,8.00
2023-04-27T23:10:26.656Z,8.40
2023-04-27T23:12:57.058Z,8.73
2023-04-27T23:15:25.669Z,8.65
2023-04-27T23:17:55.410Z,8.38
2023-04-27T23:20:28.880Z,8.40
2023-04-27T23:22:57.857Z,8.10
2023-04-27T23:25:26.290Z,8.13
2023-04-27T23:27:54.804Z,9.07
2023-04-27T23:30:23.333Z,8.80
2023-04-27T23:32:51.930Z,8.10
2023-04-27T23:35:22.392Z,9.13
2023-04-27T23:37:50.792Z,8.95
2023-04-27T23:40:19.375Z,9.35
2023-04-27T23:42:49.127Z,9.52
2023-04-27T23:45:19.320Z,7.82
2023-04-27T23:47:47.708Z,8.50
2023-04-27T23:50:16.664Z,8.20
2023-04-27T23:52:46.363Z,8.07
2023-04-27T23:55:15.021Z,7.47
2023-04-27T23:57:44.323Z,7.78
